sensor_id;sensor_type;location;lat;lon;timestamp;pressure;altitude;pressure_sealevel;temperature
74539;BMP180;66042;51.090;-115.340;2023-04-03T00:01:16;85678.40;;;0.80
74539;BMP180;66042;51.090;-115.340;2023-04-03T00:03:43;85681.20;;;0.80
74539;BMP180;66042;51.090;-115.340;2023-04-03T00:06:11;85681.60;;;0.80
74539;BMP180;66042;51.090;-115.340;2023-04-03T00:08:40;85680.40;;;0.80
74539;BMP180;66042;51.090;-115.340;2023-04-03T00:11:08;85681.20;;;0.80
74539;BMP180;66042;51.090;-115.340;2023-04-03T00:13:35;85684.60;;;0.70
74539;BMP180;66042;51.090;-115.340;2023-04-03T00:16:03;85684.60;;;0.70
74539;BMP180;66042;51.090;-115.340;2023-04-03T00:18:31;85689.80;;;0.70
74539;BMP180;66042;51.090;-115.340;2023-04-03T00:20:58;85691.40;;;0.70
74539;BMP180;66042;51.090;-115.340;2023-04-03T00:23:26;85693.60;;;0.70
74539;BMP180;66042;51.090;-115.340;2023-04-03T00:25:53;85694.20;;;0.70
74539;BMP180;66042;51.090;-115.340;2023-04-03T00:28:21;85700.60;;;0.70
74539;BMP180;66042;51.090;-115.340;2023-04-03T00:30:50;85701.60;;;0.60
74539;BMP180;66042;51.090;-115.340;2023-04-03T00:33:17;85699.60;;;0.60
74539;BMP180;66042;51.090;-115.340;2023-04-03T00:35:48;85701.00;;;0.60
74539;BMP180;66042;51.090;-115.340;2023-04-03T00:38:16;85700.60;;;0.60
74539;BMP180;66042;51.090;-115.340;2023-04-03T00:40:46;85700.40;;;0.60
74539;BMP180;66042;51.090;-115.340;2023-04-03T00:43:22;85696.00;;;0.60
74539;BMP180;66042;51.090;-115.340;2023-04-03T00:45:52;85699.40;;;0.50
74539;BMP180;66042;51.090;-115.340;2023-04-03T00:49:07;85698.00;;;0.40
74539;BMP180;66042;51.090;-115.340;2023-04-03T00:51:20;85703.60;;;0.40
74539;BMP180;66042;51.090;-115.340;2023-04-03T00:53:58;85706.00;;;0.40
74539;BMP180;66042;51.090;-115.340;2023-04-03T00:56:28;85707.40;;;0.30
74539;BMP180;66042;51.090;-115.340;2023-04-03T00:59:23;85705.00;;;0.30
74539;BMP180;66042;51.090;-115.340;2023-04-03T01:01:55;85704.80;;;0.30
74539;BMP180;66042;51.090;-115.340;2023-04-03T01:04:39;85703.20;;;0.20
74539;BMP180;66042;51.090;-115.340;2023-04-03T01:07:12;85701.40;;;0.20
74539;BMP180;66042;51.090;-115.340;2023-04-03T01:09:42;85703.20;;;0.16
74539;BMP180;66042;51.090;-115.340;2023-04-03T01:12:26;85703.20;;;0.10
74539;BMP180;66042;51.090;-115.340;2023-04-03T01:15:01;85705.00;;;0.10
74539;BMP180;66042;51.090;-115.340;2023-04-03T01:20:34;85710.20;;;0.10
74539;BMP180;66042;51.090;-115.340;2023-04-03T01:23:44;85708.00;;;0.00
74539;BMP180;66042;51.090;-115.340;2023-04-03T01:26:12;85709.80;;;-0.04
74539;BMP180;66042;51.090;-115.340;2023-04-03T01:28:40;85713.80;;;-0.10
74539;BMP180;66042;51.090;-115.340;2023-04-03T01:31:21;85709.80;;;-0.20
74539;BMP180;66042;51.090;-115.340;2023-04-03T01:33:49;85711.80;;;-0.20
74539;BMP180;66042;51.090;-115.340;2023-04-03T01:36:22;85713.40;;;-0.20
74539;BMP180;66042;51.090;-115.340;2023-04-03T01:38:51;85713.80;;;-0.20
74539;BMP180;66042;51.090;-115.340;2023-04-03T01:41:20;85714.60;;;-0.22
74539;BMP180;66042;51.090;-115.340;2023-04-03T01:43:50;85712.40;;;-0.30
74539;BMP180;66042;51.090;-115.340;2023-04-03T01:46:19;85714.00;;;-0.30
74539;BMP180;66042;51.090;-115.340;2023-04-03T01:48:46;85717.00;;;-0.30
74539;BMP180;66042;51.090;-115.340;2023-04-03T01:51:13;85725.80;;;-0.30
74539;BMP180;66042;51.090;-115.340;2023-04-03T01:53:41;85727.80;;;-0.30
74539;BMP180;66042;51.090;-115.340;2023-04-03T01:56:08;85728.60;;;-0.30
74539;BMP180;66042;51.090;-115.340;2023-04-03T01:58:36;85728.80;;;-0.34
74539;BMP180;66042;51.090;-115.340;2023-04-03T02:01:03;85731.80;;;-0.30
74539;BMP180;66042;51.090;-115.340;2023-04-03T02:03:30;85730.40;;;-0.30
74539;BMP180;66042;51.090;-115.340;2023-04-03T02:05:58;85732.20;;;-0.30
74539;BMP180;66042;51.090;-115.340;2023-04-03T02:08:25;85733.00;;;-0.30
74539;BMP180;66042;51.090;-115.340;2023-04-03T02:10:52;85734.60;;;-0.30
74539;BMP180;66042;51.090;-115.340;2023-04-03T02:13:19;85736.80;;;-0.30
74539;BMP180;66042;51.090;-115.340;2023-04-03T02:15:47;85735.00;;;-0.30
74539;BMP180;66042;51.090;-115.340;2023-04-03T02:18:14;85736.60;;;-0.34
74539;BMP180;66042;51.090;-115.340;2023-04-03T02:20:41;85741.00;;;-0.40
74539;BMP180;66042;51.090;-115.340;2023-04-03T02:23:08;85739.00;;;-0.40
74539;BMP180;66042;51.090;-115.340;2023-04-03T02:25:35;85747.00;;;-0.40
74539;BMP180;66042;51.090;-115.340;2023-04-03T02:28:03;85746.40;;;-0.44
74539;BMP180;66042;51.090;-115.340;2023-04-03T02:30:29;85745.20;;;-0.50
74539;BMP180;66042;51.090;-115.340;2023-04-03T02:32:56;85749.00;;;-0.58
74539;BMP180;66042;51.090;-115.340;2023-04-03T02:35:24;85747.80;;;-0.60
74539;BMP180;66042;51.090;-115.340;2023-04-03T02:37:51;85752.20;;;-0.70
74539;BMP180;66042;51.090;-115.340;2023-04-03T02:40:18;85756.80;;;-0.80
74539;BMP180;66042;51.090;-115.340;2023-04-03T02:42:45;85754.40;;;-0.82
74539;BMP180;66042;51.090;-115.340;2023-04-03T02:45:12;85759.40;;;-0.90
74539;BMP180;66042;51.090;-115.340;2023-04-03T02:47:39;85763.60;;;-0.98
74539;BMP180;66042;51.090;-115.340;2023-04-03T02:50:06;85762.40;;;-1.00
74539;BMP180;66042;51.090;-115.340;2023-04-03T02:52:33;85767.20;;;-1.06
74539;BMP180;66042;51.090;-115.340;2023-04-03T02:55:00;85771.00;;;-1.10
74539;BMP180;66042;51.090;-115.340;2023-04-03T02:57:28;85771.60;;;-1.10
74539;BMP180;66042;51.090;-115.340;2023-04-03T02:59:55;85775.60;;;-1.10
74539;BMP180;66042;51.090;-115.340;2023-04-03T03:02:22;85776.40;;;-1.10
74539;BMP180;66042;51.090;-115.340;2023-04-03T03:04:50;85777.60;;;-1.10
74539;BMP180;66042;51.090;-115.340;2023-04-03T03:07:17;85776.00;;;-1.20
74539;BMP180;66042;51.090;-115.340;2023-04-03T03:09:44;85781.80;;;-1.10
74539;BMP180;66042;51.090;-115.340;2023-04-03T03:12:11;85784.60;;;-1.10
74539;BMP180;66042;51.090;-115.340;2023-04-03T03:14:38;85787.80;;;-1.10
74539;BMP180;66042;51.090;-115.340;2023-04-03T03:17:06;85788.80;;;-1.10
74539;BMP180;66042;51.090;-115.340;2023-04-03T03:19:32;85788.40;;;-1.10
74539;BMP180;66042;51.090;-115.340;2023-04-03T03:22:00;85793.40;;;-1.00
74539;BMP180;66042;51.090;-115.340;2023-04-03T03:24:27;85793.40;;;-1.00
74539;BMP180;66042;51.090;-115.340;2023-04-03T03:26:54;85793.20;;;-1.00
74539;BMP180;66042;51.090;-115.340;2023-04-03T03:29:21;85790.20;;;-0.96
74539;BMP180;66042;51.090;-115.340;2023-04-03T03:31:48;85795.80;;;-0.90
74539;BMP180;66042;51.090;-115.340;2023-04-03T03:34:16;85797.40;;;-0.94
74539;BMP180;66042;51.090;-115.340;2023-04-03T03:36:43;85798.00;;;-1.00
74539;BMP180;66042;51.090;-115.340;2023-04-03T03:39:10;85803.00;;;-1.00
74539;BMP180;66042;51.090;-115.340;2023-04-03T03:41:37;85803.40;;;-1.00
74539;BMP180;66042;51.090;-115.340;2023-04-03T03:44:04;85807.40;;;-1.00
74539;BMP180;66042;51.090;-115.340;2023-04-03T03:46:31;85808.20;;;-1.00
74539;BMP180;66042;51.090;-115.340;2023-04-03T03:48:58;85804.80;;;-1.00
74539;BMP180;66042;51.090;-115.340;2023-04-03T03:51:26;85808.00;;;-1.00
74539;BMP180;66042;51.090;-115.340;2023-04-03T03:53:53;85811.60;;;-1.00
74539;BMP180;66042;51.090;-115.340;2023-04-03T03:56:21;85812.60;;;-1.00
74539;BMP180;66042;51.090;-115.340;2023-04-03T03:58:48;85814.60;;;-1.00
74539;BMP180;66042;51.090;-115.340;2023-04-03T04:01:16;85808.00;;;-1.10
74539;BMP180;66042;51.090;-115.340;2023-04-03T04:03:43;85805.80;;;-1.10
74539;BMP180;66042;51.090;-115.340;2023-04-03T04:06:10;85807.20;;;-1.14
74539;BMP180;66042;51.090;-115.340;2023-04-03T04:08:37;85804.60;;;-1.20
74539;BMP180;66042;51.090;-115.340;2023-04-03T04:11:05;85811.00;;;-1.20
74539;BMP180;66042;51.090;-115.340;2023-04-03T04:13:32;85807.80;;;-1.10
74539;BMP180;66042;51.090;-115.340;2023-04-03T04:15:59;85813.60;;;-1.10
74539;BMP180;66042;51.090;-115.340;2023-04-03T04:18:26;85808.60;;;-1.10
74539;BMP180;66042;51.090;-115.340;2023-04-03T04:20:53;85807.40;;;-1.10
74539;BMP180;66042;51.090;-115.340;2023-04-03T04:23:20;85806.00;;;-1.10
74539;BMP180;66042;51.090;-115.340;2023-04-03T04:25:48;85808.40;;;-1.10
74539;BMP180;66042;51.090;-115.340;2023-04-03T04:28:16;85806.40;;;-1.10
74539;BMP180;66042;51.090;-115.340;2023-04-03T04:30:44;85806.60;;;-1.10
74539;BMP180;66042;51.090;-115.340;2023-04-03T04:33:11;85801.80;;;-1.10
74539;BMP180;66042;51.090;-115.340;2023-04-03T04:35:42;85803.40;;;-1.10
74539;BMP180;66042;51.090;-115.340;2023-04-03T04:38:10;85804.00;;;-1.10
74539;BMP180;66042;51.090;-115.340;2023-04-03T04:40:37;85804.40;;;-1.10
74539;BMP180;66042;51.090;-115.340;2023-04-03T04:43:04;85802.80;;;-1.18
74539;BMP180;66042;51.090;-115.340;2023-04-03T04:45:31;85803.40;;;-1.12
74539;BMP180;66042;51.090;-115.340;2023-04-03T04:47:58;85801.40;;;-1.30
74539;BMP180;66042;51.090;-115.340;2023-04-03T04:50:25;85804.20;;;-1.30
74539;BMP180;66042;51.090;-115.340;2023-04-03T04:52:52;85808.20;;;-1.30
74539;BMP180;66042;51.090;-115.340;2023-04-03T04:55:19;85808.20;;;-1.32
74539;BMP180;66042;51.090;-115.340;2023-04-03T04:57:47;85808.60;;;-1.34
74539;BMP180;66042;51.090;-115.340;2023-04-03T05:00:15;85809.80;;;-1.40
74539;BMP180;66042;51.090;-115.340;2023-04-03T05:02:42;85803.80;;;-1.40
74539;BMP180;66042;51.090;-115.340;2023-04-03T05:05:09;85807.00;;;-1.52
74539;BMP180;66042;51.090;-115.340;2023-04-03T05:07:36;85804.40;;;-1.50
74539;BMP180;66042;51.090;-115.340;2023-04-03T05:10:03;85809.60;;;-1.50
74539;BMP180;66042;51.090;-115.340;2023-04-03T05:12:31;85806.20;;;-1.60
74539;BMP180;66042;51.090;-115.340;2023-04-03T05:14:58;85802.20;;;-1.60
74539;BMP180;66042;51.090;-115.340;2023-04-03T05:17:26;85802.20;;;-1.60
74539;BMP180;66042;51.090;-115.340;2023-04-03T05:19:53;85802.60;;;-1.62
74539;BMP180;66042;51.090;-115.340;2023-04-03T05:22:20;85801.00;;;-1.60
74539;BMP180;66042;51.090;-115.340;2023-04-03T05:24:48;85802.20;;;-1.60
74539;BMP180;66042;51.090;-115.340;2023-04-03T05:27:15;85804.60;;;-1.60
74539;BMP180;66042;51.090;-115.340;2023-04-03T05:29:43;85803.40;;;-1.60
74539;BMP180;66042;51.090;-115.340;2023-04-03T05:32:11;85807.20;;;-1.50
74539;BMP180;66042;51.090;-115.340;2023-04-03T05:34:38;85810.60;;;-1.52
74539;BMP180;66042;51.090;-115.340;2023-04-03T05:37:05;85808.40;;;-1.50
74539;BMP180;66042;51.090;-115.340;2023-04-03T05:39:32;85810.60;;;-1.50
74539;BMP180;66042;51.090;-115.340;2023-04-03T05:42:00;85814.40;;;-1.50
74539;BMP180;66042;51.090;-115.340;2023-04-03T05:44:27;85813.20;;;-1.50
74539;BMP180;66042;51.090;-115.340;2023-04-03T05:46:54;85814.60;;;-1.50
74539;BMP180;66042;51.090;-115.340;2023-04-03T05:49:21;85815.00;;;-1.52
74539;BMP180;66042;51.090;-115.340;2023-04-03T05:51:48;85814.80;;;-1.60
74539;BMP180;66042;51.090;-115.340;2023-04-03T05:54:24;85815.00;;;-1.70
74539;BMP180;66042;51.090;-115.340;2023-04-03T05:56:52;85814.00;;;-1.70
74539;BMP180;66042;51.090;-115.340;2023-04-03T05:59:20;85812.40;;;-1.70
74539;BMP180;66042;51.090;-115.340;2023-04-03T06:01:48;85810.20;;;-1.70
74539;BMP180;66042;51.090;-115.340;2023-04-03T06:04:15;85813.20;;;-1.60
74539;BMP180;66042;51.090;-115.340;2023-04-03T06:06:56;85823.80;;;-1.60
74539;BMP180;66042;51.090;-115.340;2023-04-03T06:09:27;85825.00;;;-1.60
74539;BMP180;66042;51.090;-115.340;2023-04-03T06:11:58;85827.00;;;-1.60
74539;BMP180;66042;51.090;-115.340;2023-04-03T06:14:26;85826.60;;;-1.60
74539;BMP180;66042;51.090;-115.340;2023-04-03T06:16:53;85826.40;;;-1.60
74539;BMP180;66042;51.090;-115.340;2023-04-03T06:19:21;85834.20;;;-1.60
74539;BMP180;66042;51.090;-115.340;2023-04-03T06:21:48;85829.00;;;-1.60
74539;BMP180;66042;51.090;-115.340;2023-04-03T06:24:17;85835.80;;;-1.60
74539;BMP180;66042;51.090;-115.340;2023-04-03T06:26:45;85831.00;;;-1.60
74539;BMP180;66042;51.090;-115.340;2023-04-03T06:29:12;85830.40;;;-1.60
74539;BMP180;66042;51.090;-115.340;2023-04-03T06:31:39;85835.20;;;-1.58
74539;BMP180;66042;51.090;-115.340;2023-04-03T06:34:07;85834.40;;;-1.50
74539;BMP180;66042;51.090;-115.340;2023-04-03T06:36:35;85839.00;;;-1.50
74539;BMP180;66042;51.090;-115.340;2023-04-03T06:39:02;85837.80;;;-1.50
74539;BMP180;66042;51.090;-115.340;2023-04-03T06:41:30;85834.00;;;-1.50
74539;BMP180;66042;51.090;-115.340;2023-04-03T06:43:57;85837.40;;;-1.50
74539;BMP180;66042;51.090;-115.340;2023-04-03T06:46:26;85833.40;;;-1.50
74539;BMP180;66042;51.090;-115.340;2023-04-03T06:48:53;85836.80;;;-1.50
74539;BMP180;66042;51.090;-115.340;2023-04-03T06:51:25;85840.20;;;-1.50
74539;BMP180;66042;51.090;-115.340;2023-04-03T06:53:55;85837.00;;;-1.50
74539;BMP180;66042;51.090;-115.340;2023-04-03T06:56:23;85838.40;;;-1.50
74539;BMP180;66042;51.090;-115.340;2023-04-03T06:58:50;85841.60;;;-1.50
74539;BMP180;66042;51.090;-115.340;2023-04-03T07:01:18;85841.20;;;-1.50
74539;BMP180;66042;51.090;-115.340;2023-04-03T07:03:46;85836.80;;;-1.52
74539;BMP180;66042;51.090;-115.340;2023-04-03T07:06:16;85840.80;;;-1.60
74539;BMP180;66042;51.090;-115.340;2023-04-03T07:08:45;85840.40;;;-1.60
74539;BMP180;66042;51.090;-115.340;2023-04-03T07:11:13;85839.40;;;-1.60
74539;BMP180;66042;51.090;-115.340;2023-04-03T07:13:40;85844.80;;;-1.62
74539;BMP180;66042;51.090;-115.340;2023-04-03T07:16:09;85846.20;;;-1.68
74539;BMP180;66042;51.090;-115.340;2023-04-03T07:18:36;85845.60;;;-1.70
74539;BMP180;66042;51.090;-115.340;2023-04-03T07:21:04;85847.60;;;-1.70
74539;BMP180;66042;51.090;-115.340;2023-04-03T07:23:31;85849.20;;;-1.70
74539;BMP180;66042;51.090;-115.340;2023-04-03T07:25:59;85848.00;;;-1.70
74539;BMP180;66042;51.090;-115.340;2023-04-03T07:28:25;85849.00;;;-1.70
74539;BMP180;66042;51.090;-115.340;2023-04-03T07:31:06;85848.80;;;-1.62
74539;BMP180;66042;51.090;-115.340;2023-04-03T07:33:35;85852.40;;;-1.60
74539;BMP180;66042;51.090;-115.340;2023-04-03T07:36:03;85852.80;;;-1.60
74539;BMP180;66042;51.090;-115.340;2023-04-03T07:38:30;85858.20;;;-1.50
74539;BMP180;66042;51.090;-115.340;2023-04-03T07:40:57;85859.40;;;-1.50
74539;BMP180;66042;51.090;-115.340;2023-04-03T07:43:26;85862.20;;;-1.50
74539;BMP180;66042;51.090;-115.340;2023-04-03T07:45:53;85867.00;;;-1.50
74539;BMP180;66042;51.090;-115.340;2023-04-03T07:48:26;85868.20;;;-1.50
74539;BMP180;66042;51.090;-115.340;2023-04-03T07:50:53;85869.60;;;-1.50
74539;BMP180;66042;51.090;-115.340;2023-04-03T07:53:20;85866.60;;;-1.50
74539;BMP180;66042;51.090;-115.340;2023-04-03T07:55:49;85865.80;;;-1.50
74539;BMP180;66042;51.090;-115.340;2023-04-03T07:58:18;85862.00;;;-1.52
74539;BMP180;66042;51.090;-115.340;2023-04-03T08:00:46;85864.00;;;-1.54
74539;BMP180;66042;51.090;-115.340;2023-04-03T08:03:15;85862.40;;;-1.58
74539;BMP180;66042;51.090;-115.340;2023-04-03T08:05:48;85863.40;;;-1.60
74539;BMP180;66042;51.090;-115.340;2023-04-03T08:08:22;85861.80;;;-1.60
74539;BMP180;66042;51.090;-115.340;2023-04-03T08:10:54;85862.40;;;-1.70
74539;BMP180;66042;51.090;-115.340;2023-04-03T08:13:22;85860.80;;;-1.70
74539;BMP180;66042;51.090;-115.340;2023-04-03T08:15:52;85862.60;;;-1.80
74539;BMP180;66042;51.090;-115.340;2023-04-03T08:18:19;85861.60;;;-1.80
74539;BMP180;66042;51.090;-115.340;2023-04-03T08:20:48;85864.20;;;-1.80
74539;BMP180;66042;51.090;-115.340;2023-04-03T08:23:14;85861.00;;;-1.84
74539;BMP180;66042;51.090;-115.340;2023-04-03T08:25:43;85857.60;;;-1.90
74539;BMP180;66042;51.090;-115.340;2023-04-03T08:28:12;85855.60;;;-1.90
74539;BMP180;66042;51.090;-115.340;2023-04-03T08:30:42;85859.00;;;-2.00
74539;BMP180;66042;51.090;-115.340;2023-04-03T08:33:10;85857.00;;;-2.00
74539;BMP180;66042;51.090;-115.340;2023-04-03T08:35:41;85858.00;;;-2.02
74539;BMP180;66042;51.090;-115.340;2023-04-03T08:38:10;85853.40;;;-2.00
74539;BMP180;66042;51.090;-115.340;2023-04-03T08:40:38;85854.20;;;-2.10
74539;BMP180;66042;51.090;-115.340;2023-04-03T08:43:56;85856.40;;;-2.06
74539;BMP180;66042;51.090;-115.340;2023-04-03T08:46:35;85853.20;;;-2.02
74539;BMP180;66042;51.090;-115.340;2023-04-03T08:49:27;85857.60;;;-2.00
74539;BMP180;66042;51.090;-115.340;2023-04-03T08:51:58;85861.00;;;-2.00
74539;BMP180;66042;51.090;-115.340;2023-04-03T08:55:01;85859.20;;;-2.00
74539;BMP180;66042;51.090;-115.340;2023-04-03T08:57:30;85859.60;;;-2.10
74539;BMP180;66042;51.090;-115.340;2023-04-03T09:00:30;85859.60;;;-2.10
74539;BMP180;66042;51.090;-115.340;2023-04-03T09:02:58;85861.40;;;-2.18
74539;BMP180;66042;51.090;-115.340;2023-04-03T09:05:45;85860.00;;;-2.10
74539;BMP180;66042;51.090;-115.340;2023-04-03T09:08:45;85854.80;;;-2.10
74539;BMP180;66042;51.090;-115.340;2023-04-03T09:11:25;85855.60;;;-2.10
74539;BMP180;66042;51.090;-115.340;2023-04-03T09:14:33;85858.20;;;-2.10
74539;BMP180;66042;51.090;-115.340;2023-04-03T09:26:58;85860.20;;;-2.20
74539;BMP180;66042;51.090;-115.340;2023-04-03T09:29:07;85860.40;;;-2.30
74539;BMP180;66042;51.090;-115.340;2023-04-03T09:31:42;85865.40;;;-2.30
74539;BMP180;66042;51.090;-115.340;2023-04-03T09:34:30;85870.80;;;-2.30
74539;BMP180;66042;51.090;-115.340;2023-04-03T09:37:02;85872.00;;;-2.36
74539;BMP180;66042;51.090;-115.340;2023-04-03T09:39:50;85872.80;;;-2.40
74539;BMP180;66042;51.090;-115.340;2023-04-03T09:42:23;85869.00;;;-2.40
74539;BMP180;66042;51.090;-115.340;2023-04-03T09:45:04;85873.00;;;-2.40
74539;BMP180;66042;51.090;-115.340;2023-04-03T09:47:34;85870.60;;;-2.40
74539;BMP180;66042;51.090;-115.340;2023-04-03T09:52:46;85877.60;;;-2.36
74539;BMP180;66042;51.090;-115.340;2023-04-03T09:55:27;85880.60;;;-2.40
74539;BMP180;66042;51.090;-115.340;2023-04-03T09:58:01;85880.80;;;-2.40
74539;BMP180;66042;51.090;-115.340;2023-04-03T10:00:37;85881.00;;;-2.30
74539;BMP180;66042;51.090;-115.340;2023-04-03T10:03:30;85883.00;;;-2.30
74539;BMP180;66042;51.090;-115.340;2023-04-03T10:05:56;85885.20;;;-2.20
74539;BMP180;66042;51.090;-115.340;2023-04-03T10:08:34;85885.60;;;-2.20
74539;BMP180;66042;51.090;-115.340;2023-04-03T10:11:15;85890.00;;;-2.20
74539;BMP180;66042;51.090;-115.340;2023-04-03T10:14:02;85886.20;;;-2.20
74539;BMP180;66042;51.090;-115.340;2023-04-03T10:25:32;85891.60;;;-2.30
74539;BMP180;66042;51.090;-115.340;2023-04-03T10:30:53;85892.60;;;-2.30
74539;BMP180;66042;51.090;-115.340;2023-04-03T10:39:46;85891.60;;;-2.30
74539;BMP180;66042;51.090;-115.340;2023-04-03T10:49:05;85888.80;;;-2.48
74539;BMP180;66042;51.090;-115.340;2023-04-03T10:58:06;85892.00;;;-2.70
74539;BMP180;66042;51.090;-115.340;2023-04-03T11:00:42;85893.20;;;-2.70
74539;BMP180;66042;51.090;-115.340;2023-04-03T11:03:32;85892.60;;;-2.70
74539;BMP180;66042;51.090;-115.340;2023-04-03T11:06:09;85892.80;;;-2.70
74539;BMP180;66042;51.090;-115.340;2023-04-03T11:08:58;85892.80;;;-2.74
74539;BMP180;66042;51.090;-115.340;2023-04-03T11:11:37;85899.00;;;-2.70
74539;BMP180;66042;51.090;-115.340;2023-04-03T11:14:35;85898.80;;;-2.70
74539;BMP180;66042;51.090;-115.340;2023-04-03T11:22:57;85904.20;;;-2.70
74539;BMP180;66042;51.090;-115.340;2023-04-03T11:25:26;85901.20;;;-2.60
74539;BMP180;66042;51.090;-115.340;2023-04-03T11:28:13;85899.80;;;-2.60
74539;BMP180;66042;51.090;-115.340;2023-04-03T11:31:12;85902.00;;;-2.60
74539;BMP180;66042;51.090;-115.340;2023-04-03T11:37:02;85902.00;;;-2.60
74539;BMP180;66042;51.090;-115.340;2023-04-03T11:39:36;85904.60;;;-2.60
74539;BMP180;66042;51.090;-115.340;2023-04-03T11:42:39;85905.00;;;-2.64
74539;BMP180;66042;51.090;-115.340;2023-04-03T11:51:02;85919.20;;;-2.70
74539;BMP180;66042;51.090;-115.340;2023-04-03T11:53:38;85920.80;;;-2.70
74539;BMP180;66042;51.090;-115.340;2023-04-03T12:01:57;85920.80;;;-2.80
74539;BMP180;66042;51.090;-115.340;2023-04-03T12:04:27;85920.20;;;-2.80
74539;BMP180;66042;51.090;-115.340;2023-04-03T12:07:21;85926.80;;;-2.80
74539;BMP180;66042;51.090;-115.340;2023-04-03T12:12:37;85924.20;;;-2.80
74539;BMP180;66042;51.090;-115.340;2023-04-03T12:21:12;85935.60;;;-2.70
74539;BMP180;66042;51.090;-115.340;2023-04-03T12:26:48;85935.00;;;-2.70
74539;BMP180;66042;51.090;-115.340;2023-04-03T12:29:21;85936.00;;;-2.60
74539;BMP180;66042;51.090;-115.340;2023-04-03T12:35:34;85937.00;;;-2.56
74539;BMP180;66042;51.090;-115.340;2023-04-03T12:48:48;85947.40;;;-2.50
74539;BMP180;66042;51.090;-115.340;2023-04-03T12:51:39;85951.40;;;-2.54
74539;BMP180;66042;51.090;-115.340;2023-04-03T12:54:36;85951.40;;;-2.60
74539;BMP180;66042;51.090;-115.340;2023-04-03T12:57:33;85954.20;;;-2.64
74539;BMP180;66042;51.090;-115.340;2023-04-03T13:00:00;85959.40;;;-2.70
74539;BMP180;66042;51.090;-115.340;2023-04-03T13:02:45;85958.80;;;-2.70
74539;BMP180;66042;51.090;-115.340;2023-04-03T13:05:19;85956.80;;;-2.80
74539;BMP180;66042;51.090;-115.340;2023-04-03T13:08:05;85958.00;;;-2.80
74539;BMP180;66042;51.090;-115.340;2023-04-03T13:11:10;85962.20;;;-2.84
74539;BMP180;66042;51.090;-115.340;2023-04-03T13:13:38;85962.60;;;-2.90
74539;BMP180;66042;51.090;-115.340;2023-04-03T13:16:11;85964.20;;;-2.94
74539;BMP180;66042;51.090;-115.340;2023-04-03T13:18:40;85964.40;;;-3.00
74539;BMP180;66042;51.090;-115.340;2023-04-03T13:21:28;85967.40;;;-3.10
74539;BMP180;66042;51.090;-115.340;2023-04-03T13:24:00;85969.80;;;-3.10
74539;BMP180;66042;51.090;-115.340;2023-04-03T13:26:31;85965.00;;;-3.20
74539;BMP180;66042;51.090;-115.340;2023-04-03T13:29:14;85964.80;;;-3.22
74539;BMP180;66042;51.090;-115.340;2023-04-03T13:31:44;85967.80;;;-3.30
74539;BMP180;66042;51.090;-115.340;2023-04-03T13:34:17;85970.80;;;-3.34
74539;BMP180;66042;51.090;-115.340;2023-04-03T13:37:05;85966.40;;;-3.40
74539;BMP180;66042;51.090;-115.340;2023-04-03T13:39:36;85974.80;;;-3.40
74539;BMP180;66042;51.090;-115.340;2023-04-03T13:42:29;85976.60;;;-3.40
74539;BMP180;66042;51.090;-115.340;2023-04-03T13:45:26;85979.60;;;-3.40
74539;BMP180;66042;51.090;-115.340;2023-04-03T13:48:18;85984.60;;;-3.40
74539;BMP180;66042;51.090;-115.340;2023-04-03T13:51:26;85991.40;;;-3.38
74539;BMP180;66042;51.090;-115.340;2023-04-03T13:54:00;85990.80;;;-3.30
74539;BMP180;66042;51.090;-115.340;2023-04-03T13:56:35;85995.40;;;-3.26
74539;BMP180;66042;51.090;-115.340;2023-04-03T14:02:17;85989.20;;;-3.18
74539;BMP180;66042;51.090;-115.340;2023-04-03T14:04:54;85993.80;;;-3.10
74539;BMP180;66042;51.090;-115.340;2023-04-03T14:07:26;85990.80;;;-3.10
74539;BMP180;66042;51.090;-115.340;2023-04-03T14:09:54;85988.00;;;-3.10
74539;BMP180;66042;51.090;-115.340;2023-04-03T14:12:36;85993.00;;;-3.10
74539;BMP180;66042;51.090;-115.340;2023-04-03T14:15:32;85995.80;;;-3.10
74539;BMP180;66042;51.090;-115.340;2023-04-03T14:17:59;85989.20;;;-3.10
74539;BMP180;66042;51.090;-115.340;2023-04-03T14:20:27;85994.00;;;-3.10
74539;BMP180;66042;51.090;-115.340;2023-04-03T14:22:54;85991.40;;;-3.10
74539;BMP180;66042;51.090;-115.340;2023-04-03T14:25:22;85994.80;;;-3.10
74539;BMP180;66042;51.090;-115.340;2023-04-03T14:27:53;85990.80;;;-3.00
74539;BMP180;66042;51.090;-115.340;2023-04-03T14:30:28;85999.40;;;-3.00
74539;BMP180;66042;51.090;-115.340;2023-04-03T14:32:57;86004.60;;;-3.00
74539;BMP180;66042;51.090;-115.340;2023-04-03T14:35:25;86004.60;;;-3.00
74539;BMP180;66042;51.090;-115.340;2023-04-03T14:37:55;86003.20;;;-3.00
74539;BMP180;66042;51.090;-115.340;2023-04-03T14:40:27;86003.40;;;-2.92
74539;BMP180;66042;51.090;-115.340;2023-04-03T14:42:54;86005.00;;;-2.90
74539;BMP180;66042;51.090;-115.340;2023-04-03T14:45:24;86011.20;;;-2.96
74539;BMP180;66042;51.090;-115.340;2023-04-03T14:47:55;86007.40;;;-3.00
74539;BMP180;66042;51.090;-115.340;2023-04-03T14:50:26;86006.80;;;-2.92
74539;BMP180;66042;51.090;-115.340;2023-04-03T14:52:58;86007.00;;;-2.90
74539;BMP180;66042;51.090;-115.340;2023-04-03T14:55:26;86010.00;;;-2.80
74539;BMP180;66042;51.090;-115.340;2023-04-03T14:57:54;86008.00;;;-2.80
74539;BMP180;66042;51.090;-115.340;2023-04-03T15:00:22;86011.20;;;-2.80
74539;BMP180;66042;51.090;-115.340;2023-04-03T15:02:49;86011.20;;;-2.80
74539;BMP180;66042;51.090;-115.340;2023-04-03T15:05:16;86011.20;;;-2.80
74539;BMP180;66042;51.090;-115.340;2023-04-03T15:07:54;86011.80;;;-2.80
74539;BMP180;66042;51.090;-115.340;2023-04-03T15:10:29;86010.20;;;-2.88
74539;BMP180;66042;51.090;-115.340;2023-04-03T15:12:57;86010.20;;;-2.80
74539;BMP180;66042;51.090;-115.340;2023-04-03T15:15:24;86008.40;;;-2.80
74539;BMP180;66042;51.090;-115.340;2023-04-03T15:17:57;86006.80;;;-2.80
74539;BMP180;66042;51.090;-115.340;2023-04-03T15:20:27;86005.20;;;-2.70
74539;BMP180;66042;51.090;-115.340;2023-04-03T15:22:57;86006.20;;;-2.64
74539;BMP180;66042;51.090;-115.340;2023-04-03T15:25:27;86007.60;;;-2.60
74539;BMP180;66042;51.090;-115.340;2023-04-03T15:27:55;86008.00;;;-2.50
74539;BMP180;66042;51.090;-115.340;2023-04-03T15:30:23;86006.00;;;-2.44
74539;BMP180;66042;51.090;-115.340;2023-04-03T15:32:50;86003.60;;;-2.40
74539;BMP180;66042;51.090;-115.340;2023-04-03T15:35:17;86005.20;;;-2.22
74539;BMP180;66042;51.090;-115.340;2023-04-03T15:37:44;86006.40;;;-2.10